sensor_id;sensor_type;location;lat;lon;timestamp;P1;durP1;ratioP1;P2;durP2;ratioP2
71042;SDS011;58696;52.134;5.500;2023-04-03T00:00:58;2.20;;;1.30;;
71042;SDS011;58696;52.134;5.500;2023-04-03T00:03:27;1.42;;;0.80;;
71042;SDS011;58696;52.134;5.500;2023-04-03T00:05:53;1.45;;;0.80;;
71042;SDS011;58696;52.134;5.500;2023-04-03T00:08:20;1.38;;;1.00;;
71042;SDS011;58696;52.134;5.500;2023-04-03T00:10:52;7.25;;;1.10;;
71042;SDS011;58696;52.134;5.500;2023-04-03T00:13:23;0.85;;;0.80;;
71042;SDS011;58696;52.134;5.500;2023-04-03T00:15:50;2.10;;;0.80;;
71042;SDS011;58696;52.134;5.500;2023-04-03T00:18:20;2.30;;;1.00;;
71042;SDS011;58696;52.134;5.500;2023-04-03T00:20:48;2.40;;;0.97;;
71042;SDS011;58696;52.134;5.500;2023-04-03T00:23:17;4.80;;;1.03;;
71042;SDS011;58696;52.134;5.500;2023-04-03T00:25:46;1.00;;;0.85;;
71042;SDS011;58696;52.134;5.500;2023-04-03T00:28:15;0.80;;;0.80;;
71042;SDS011;58696;52.134;5.500;2023-04-03T00:30:44;1.48;;;0.90;;
71042;SDS011;58696;52.134;5.500;2023-04-03T00:33:12;2.75;;;1.15;;
71042;SDS011;58696;52.134;5.500;2023-04-03T00:35:41;3.70;;;1.10;;
71042;SDS011;58696;52.134;5.500;2023-04-03T00:38:08;1.50;;;1.08;;
71042;SDS011;58696;52.134;5.500;2023-04-03T00:40:37;1.33;;;1.05;;
71042;SDS011;58696;52.134;5.500;2023-04-03T00:43:10;1.65;;;1.00;;
71042;SDS011;58696;52.134;5.500;2023-04-03T00:45:40;2.33;;;1.05;;
71042;SDS011;58696;52.134;5.500;2023-04-03T00:48:11;1.88;;;1.27;;
71042;SDS011;58696;52.134;5.500;2023-04-03T00:50:42;4.43;;;1.10;;
71042;SDS011;58696;52.134;5.500;2023-04-03T00:53:16;2.88;;;1.10;;
71042;SDS011;58696;52.134;5.500;2023-04-03T00:55:46;2.78;;;1.10;;
71042;SDS011;58696;52.134;5.500;2023-04-03T00:58:16;1.55;;;0.90;;
71042;SDS011;58696;52.134;5.500;2023-04-03T01:00:48;1.77;;;1.05;;
71042;SDS011;58696;52.134;5.500;2023-04-03T01:03:24;1.90;;;0.98;;
71042;SDS011;58696;52.134;5.500;2023-04-03T01:05:51;1.48;;;1.10;;
71042;SDS011;58696;52.134;5.500;2023-04-03T01:08:18;1.30;;;0.98;;
71042;SDS011;58696;52.134;5.500;2023-04-03T01:10:44;1.40;;;1.05;;
71042;SDS011;58696;52.134;5.500;2023-04-03T01:13:22;1.83;;;1.20;;
71042;SDS011;58696;52.134;5.500;2023-04-03T01:15:55;2.03;;;1.00;;
71042;SDS011;58696;52.134;5.500;2023-04-03T01:18:26;3.50;;;1.10;;
71042;SDS011;58696;52.134;5.500;2023-04-03T01:26:32;2.20;;;1.02;;
71042;SDS011;58696;52.134;5.500;2023-04-03T01:28:59;2.25;;;1.00;;
71042;SDS011;58696;52.134;5.500;2023-04-03T01:31:48;3.40;;;1.25;;
71042;SDS011;58696;52.134;5.500;2023-04-03T01:34:17;2.40;;;1.20;;
71042;SDS011;58696;52.134;5.500;2023-04-03T01:36:46;2.42;;;1.30;;
71042;SDS011;58696;52.134;5.500;2023-04-03T01:39:15;4.75;;;1.08;;
71042;SDS011;58696;52.134;5.500;2023-04-03T01:41:50;3.60;;;1.23;;
71042;SDS011;58696;52.134;5.500;2023-04-03T01:44:16;1.35;;;0.88;;
71042;SDS011;58696;52.134;5.500;2023-04-03T01:46:45;3.85;;;1.35;;
71042;SDS011;58696;52.134;5.500;2023-04-03T01:49:17;1.55;;;0.90;;
71042;SDS011;58696;52.134;5.500;2023-04-03T01:51:46;1.50;;;0.90;;
71042;SDS011;58696;52.134;5.500;2023-04-03T01:54:14;1.38;;;1.17;;
71042;SDS011;58696;52.134;5.500;2023-04-03T01:56:46;6.25;;;1.20;;
71042;SDS011;58696;52.134;5.500;2023-04-03T01:59:12;6.47;;;1.23;;
71042;SDS011;58696;52.134;5.500;2023-04-03T02:01:45;1.52;;;1.00;;
71042;SDS011;58696;52.134;5.500;2023-04-03T02:04:12;3.55;;;1.30;;
71042;SDS011;58696;52.134;5.500;2023-04-03T02:06:41;4.57;;;1.40;;
71042;SDS011;58696;52.134;5.500;2023-04-03T02:09:08;2.45;;;0.90;;
71042;SDS011;58696;52.134;5.500;2023-04-03T02:11:34;3.72;;;1.48;;
71042;SDS011;58696;52.134;5.500;2023-04-03T02:14:00;1.70;;;1.02;;
71042;SDS011;58696;52.134;5.500;2023-04-03T02:16:27;2.70;;;1.67;;
71042;SDS011;58696;52.134;5.500;2023-04-03T02:18:54;2.60;;;1.02;;
71042;SDS011;58696;52.134;5.500;2023-04-03T02:21:21;2.25;;;1.10;;
71042;SDS011;58696;52.134;5.500;2023-04-03T02:23:48;1.73;;;1.23;;
71042;SDS011;58696;52.134;5.500;2023-04-03T02:26:15;5.05;;;1.17;;
71042;SDS011;58696;52.134;5.500;2023-04-03T02:28:43;3.13;;;1.35;;
71042;SDS011;58696;52.134;5.500;2023-04-03T02:31:09;4.10;;;1.30;;
71042;SDS011;58696;52.134;5.500;2023-04-03T02:33:37;1.42;;;1.02;;
71042;SDS011;58696;52.134;5.500;2023-04-03T02:36:09;3.22;;;1.30;;
71042;SDS011;58696;52.134;5.500;2023-04-03T02:38:36;2.78;;;1.23;;
71042;SDS011;58696;52.134;5.500;2023-04-03T02:41:03;2.40;;;1.52;;
71042;SDS011;58696;52.134;5.500;2023-04-03T02:43:31;2.85;;;1.30;;
71042;SDS011;58696;52.134;5.500;2023-04-03T02:45:58;3.05;;;1.70;;
71042;SDS011;58696;52.134;5.500;2023-04-03T02:48:25;2.55;;;1.13;;
71042;SDS011;58696;52.134;5.500;2023-04-03T02:50:55;1.95;;;1.30;;
71042;SDS011;58696;52.134;5.500;2023-04-03T02:53:24;1.15;;;1.00;;
71042;SDS011;58696;52.134;5.500;2023-04-03T02:55:50;3.45;;;1.30;;
71042;SDS011;58696;52.134;5.500;2023-04-03T02:58:19;4.53;;;1.38;;
71042;SDS011;58696;52.134;5.500;2023-04-03T03:00:46;2.30;;;1.48;;
71042;SDS011;58696;52.134;5.500;2023-04-03T03:03:12;2.25;;;1.38;;
71042;SDS011;58696;52.134;5.500;2023-04-03T03:05:40;2.42;;;1.30;;
71042;SDS011;58696;52.134;5.500;2023-04-03T03:08:06;4.57;;;1.45;;
71042;SDS011;58696;52.134;5.500;2023-04-03T03:10:35;9.88;;;1.33;;
71042;SDS011;58696;52.134;5.500;2023-04-03T03:13:03;2.63;;;1.15;;
71042;SDS011;58696;52.134;5.500;2023-04-03T03:15:29;2.83;;;1.33;;
71042;SDS011;58696;52.134;5.500;2023-04-03T03:17:58;3.63;;;1.42;;
71042;SDS011;58696;52.134;5.500;2023-04-03T03:20:26;2.78;;;1.17;;
71042;SDS011;58696;52.134;5.500;2023-04-03T03:22:55;3.22;;;1.27;;
71042;SDS011;58696;52.134;5.500;2023-04-03T03:25:24;3.92;;;1.45;;
71042;SDS011;58696;52.134;5.500;2023-04-03T03:27:50;6.05;;;1.70;;
71042;SDS011;58696;52.134;5.500;2023-04-03T03:30:19;3.53;;;1.33;;
71042;SDS011;58696;52.134;5.500;2023-04-03T03:32:48;3.65;;;1.38;;
71042;SDS011;58696;52.134;5.500;2023-04-03T03:35:15;3.60;;;1.42;;
71042;SDS011;58696;52.134;5.500;2023-04-03T03:37:41;2.63;;;1.40;;
71042;SDS011;58696;52.134;5.500;2023-04-03T03:40:10;5.07;;;1.30;;
71042;SDS011;58696;52.134;5.500;2023-04-03T03:45:05;2.70;;;1.50;;
71042;SDS011;58696;52.134;5.500;2023-04-03T03:47:32;4.75;;;1.30;;
71042;SDS011;58696;52.134;5.500;2023-04-03T03:50:02;11.80;;;1.67;;
71042;SDS011;58696;52.134;5.500;2023-04-03T03:52:32;4.97;;;1.50;;
71042;SDS011;58696;52.134;5.500;2023-04-03T03:55:01;5.70;;;1.25;;
71042;SDS011;58696;52.134;5.500;2023-04-03T03:57:28;5.20;;;1.60;;
71042;SDS011;58696;52.134;5.500;2023-04-03T03:59:55;3.72;;;1.38;;
71042;SDS011;58696;52.134;5.500;2023-04-03T04:02:23;2.22;;;1.30;;
71042;SDS011;58696;52.134;5.500;2023-04-03T04:04:53;3.38;;;1.52;;
71042;SDS011;58696;52.134;5.500;2023-04-03T04:07:20;1.73;;;1.40;;
71042;SDS011;58696;52.134;5.500;2023-04-03T04:09:49;4.13;;;2.08;;
71042;SDS011;58696;52.134;5.500;2023-04-03T04:12:15;3.40;;;1.80;;
71042;SDS011;58696;52.134;5.500;2023-04-03T04:14:44;2.08;;;1.35;;
71042;SDS011;58696;52.134;5.500;2023-04-03T04:17:15;3.90;;;1.65;;
71042;SDS011;58696;52.134;5.500;2023-04-03T04:19:44;6.35;;;1.50;;
71042;SDS011;58696;52.134;5.500;2023-04-03T04:22:13;1.35;;;1.20;;
71042;SDS011;58696;52.134;5.500;2023-04-03T04:24:39;1.52;;;1.20;;
71042;SDS011;58696;52.134;5.500;2023-04-03T04:27:06;2.75;;;1.40;;
71042;SDS011;58696;52.134;5.500;2023-04-03T04:29:34;3.53;;;1.42;;
71042;SDS011;58696;52.134;5.500;2023-04-03T04:32:04;1.73;;;1.30;;
71042;SDS011;58696;52.134;5.500;2023-04-03T04:34:31;5.03;;;1.45;;
71042;SDS011;58696;52.134;5.500;2023-04-03T04:36:57;5.43;;;1.48;;
71042;SDS011;58696;52.134;5.500;2023-04-03T04:39:24;1.90;;;1.08;;
71042;SDS011;58696;52.134;5.500;2023-04-03T04:41:52;2.28;;;1.40;;
71042;SDS011;58696;52.134;5.500;2023-04-03T04:44:21;4.35;;;1.60;;
71042;SDS011;58696;52.134;5.500;2023-04-03T04:46:50;3.10;;;1.50;;
71042;SDS011;58696;52.134;5.500;2023-04-03T04:49:17;1.70;;;1.05;;
71042;SDS011;58696;52.134;5.500;2023-04-03T04:51:46;6.57;;;1.95;;
71042;SDS011;58696;52.134;5.500;2023-04-03T04:54:17;4.70;;;1.58;;
71042;SDS011;58696;52.134;5.500;2023-04-03T04:56:46;3.40;;;1.40;;
71042;SDS011;58696;52.134;5.500;2023-04-03T04:59:15;8.63;;;1.70;;
71042;SDS011;58696;52.134;5.500;2023-04-03T05:01:47;4.43;;;1.75;;
71042;SDS011;58696;52.134;5.500;2023-04-03T05:04:16;2.20;;;1.25;;
71042;SDS011;58696;52.134;5.500;2023-04-03T05:06:43;3.53;;;1.50;;
71042;SDS011;58696;52.134;5.500;2023-04-03T05:09:12;4.32;;;1.45;;
71042;SDS011;58696;52.134;5.500;2023-04-03T05:11:38;6.20;;;1.45;;
71042;SDS011;58696;52.134;5.500;2023-04-03T05:14:05;2.88;;;1.20;;
71042;SDS011;58696;52.134;5.500;2023-04-03T05:16:35;3.65;;;1.30;;
71042;SDS011;58696;52.134;5.500;2023-04-03T05:19:03;2.83;;;1.38;;
71042;SDS011;58696;52.134;5.500;2023-04-03T05:21:30;5.50;;;2.40;;
71042;SDS011;58696;52.134;5.500;2023-04-03T05:23:59;2.05;;;1.40;;
71042;SDS011;58696;52.134;5.500;2023-04-03T05:26:31;2.10;;;1.45;;
71042;SDS011;58696;52.134;5.500;2023-04-03T05:29:01;3.88;;;1.42;;
71042;SDS011;58696;52.134;5.500;2023-04-03T05:31:28;3.42;;;1.20;;
71042;SDS011;58696;52.134;5.500;2023-04-03T05:33:57;2.83;;;1.20;;
71042;SDS011;58696;52.134;5.500;2023-04-03T05:36:23;9.55;;;2.00;;
71042;SDS011;58696;52.134;5.500;2023-04-03T05:38:51;5.53;;;1.55;;
71042;SDS011;58696;52.134;5.500;2023-04-03T05:41:21;2.63;;;1.10;;
71042;SDS011;58696;52.134;5.500;2023-04-03T05:43:50;3.15;;;1.48;;
71042;SDS011;58696;52.134;5.500;2023-04-03T05:46:18;4.72;;;1.48;;
71042;SDS011;58696;52.134;5.500;2023-04-03T05:48:45;4.55;;;1.52;;
71042;SDS011;58696;52.134;5.500;2023-04-03T05:51:18;3.63;;;1.50;;
71042;SDS011;58696;52.134;5.500;2023-04-03T05:53:50;4.25;;;1.70;;
71042;SDS011;58696;52.134;5.500;2023-04-03T05:56:25;6.75;;;1.45;;
71042;SDS011;58696;52.134;5.500;2023-04-03T05:58:51;4.25;;;1.20;;
71042;SDS011;58696;52.134;5.500;2023-04-03T06:01:18;1.67;;;1.42;;
71042;SDS011;58696;52.134;5.500;2023-04-03T06:03:47;5.22;;;2.00;;
71042;SDS011;58696;52.134;5.500;2023-04-03T06:06:15;2.05;;;1.40;;
71042;SDS011;58696;52.134;5.500;2023-04-03T06:08:42;4.18;;;1.75;;
71042;SDS011;58696;52.134;5.500;2023-04-03T06:11:09;3.22;;;1.85;;
71042;SDS011;58696;52.134;5.500;2023-04-03T06:13:38;4.90;;;1.80;;
71042;SDS011;58696;52.134;5.500;2023-04-03T06:16:05;2.90;;;1.50;;
71042;SDS011;58696;52.134;5.500;2023-04-03T06:18:37;2.35;;;1.10;;
71042;SDS011;58696;52.134;5.500;2023-04-03T06:21:04;5.97;;;1.70;;
71042;SDS011;58696;52.134;5.500;2023-04-03T06:23:30;3.10;;;1.48;;
71042;SDS011;58696;52.134;5.500;2023-04-03T06:25:58;2.65;;;1.42;;
71042;SDS011;58696;52.134;5.500;2023-04-03T06:28:26;7.13;;;1.63;;
71042;SDS011;58696;52.134;5.500;2023-04-03T06:30:55;2.10;;;1.35;;
71042;SDS011;58696;52.134;5.500;2023-04-03T06:33:26;4.45;;;1.77;;
71042;SDS011;58696;52.134;5.500;2023-04-03T06:35:56;3.05;;;1.50;;
71042;SDS011;58696;52.134;5.500;2023-04-03T06:38:27;1.85;;;1.23;;
71042;SDS011;58696;52.134;5.500;2023-04-03T06:40:53;3.50;;;1.88;;
71042;SDS011;58696;52.134;5.500;2023-04-03T06:43:20;3.63;;;1.90;;
71042;SDS011;58696;52.134;5.500;2023-04-03T06:45:49;3.60;;;1.50;;
71042;SDS011;58696;52.134;5.500;2023-04-03T06:48:16;4.45;;;1.35;;
71042;SDS011;58696;52.134;5.500;2023-04-03T06:50:43;6.43;;;1.40;;
71042;SDS011;58696;52.134;5.500;2023-04-03T06:53:10;4.70;;;1.55;;
71042;SDS011;58696;52.134;5.500;2023-04-03T06:55:36;2.45;;;1.55;;
71042;SDS011;58696;52.134;5.500;2023-04-03T06:58:03;3.65;;;1.77;;
71042;SDS011;58696;52.134;5.500;2023-04-03T07:00:32;2.33;;;1.33;;
71042;SDS011;58696;52.134;5.500;2023-04-03T07:02:59;2.30;;;1.20;;
71042;SDS011;58696;52.134;5.500;2023-04-03T07:05:25;4.80;;;2.05;;
71042;SDS011;58696;52.134;5.500;2023-04-03T07:07:52;2.72;;;1.50;;
71042;SDS011;58696;52.134;5.500;2023-04-03T07:10:19;5.55;;;1.48;;
71042;SDS011;58696;52.134;5.500;2023-04-03T07:12:46;3.25;;;1.65;;
71042;SDS011;58696;52.134;5.500;2023-04-03T07:15:15;5.47;;;1.50;;
71042;SDS011;58696;52.134;5.500;2023-04-03T07:17:42;4.07;;;1.55;;
71042;SDS011;58696;52.134;5.500;2023-04-03T07:20:08;3.90;;;1.33;;
71042;SDS011;58696;52.134;5.500;2023-04-03T07:22:35;3.50;;;1.58;;
71042;SDS011;58696;52.134;5.500;2023-04-03T07:25:04;2.30;;;1.25;;
71042;SDS011;58696;52.134;5.500;2023-04-03T07:27:33;3.35;;;1.48;;
71042;SDS011;58696;52.134;5.500;2023-04-03T07:30:00;4.90;;;1.90;;
71042;SDS011;58696;52.134;5.500;2023-04-03T07:32:27;3.65;;;1.67;;
71042;SDS011;58696;52.134;5.500;2023-04-03T07:34:53;3.40;;;1.50;;
71042;SDS011;58696;52.134;5.500;2023-04-03T07:37:20;5.05;;;1.52;;
71042;SDS011;58696;52.134;5.500;2023-04-03T07:39:46;4.10;;;1.55;;
71042;SDS011;58696;52.134;5.500;2023-04-03T07:42:14;6.88;;;2.05;;
71042;SDS011;58696;52.134;5.500;2023-04-03T07:44:41;5.20;;;1.48;;
71042;SDS011;58696;52.134;5.500;2023-04-03T07:47:12;4.63;;;1.58;;
71042;SDS011;58696;52.134;5.500;2023-04-03T07:49:40;10.95;;;1.98;;
71042;SDS011;58696;52.134;5.500;2023-04-03T07:52:09;5.32;;;1.52;;
71042;SDS011;58696;52.134;5.500;2023-04-03T07:54:35;6.55;;;1.45;;
71042;SDS011;58696;52.134;5.500;2023-04-03T07:57:05;2.97;;;1.40;;
71042;SDS011;58696;52.134;5.500;2023-04-03T07:59:34;9.80;;;1.50;;
71042;SDS011;58696;52.134;5.500;2023-04-03T08:02:01;4.10;;;1.30;;
71042;SDS011;58696;52.134;5.500;2023-04-03T08:04:27;4.70;;;1.73;;
71042;SDS011;58696;52.134;5.500;2023-04-03T08:06:56;3.38;;;1.35;;
71042;SDS011;58696;52.134;5.500;2023-04-03T08:09:23;4.90;;;1.42;;
71042;SDS011;58696;52.134;5.500;2023-04-03T08:11:49;2.17;;;1.33;;
71042;SDS011;58696;52.134;5.500;2023-04-03T08:14:19;1.90;;;1.10;;
71042;SDS011;58696;52.134;5.500;2023-04-03T08:16:48;1.87;;;1.17;;
71042;SDS011;58696;52.134;5.500;2023-04-03T08:19:15;2.00;;;1.10;;
71042;SDS011;58696;52.134;5.500;2023-04-03T08:21:52;2.03;;;1.10;;
71042;SDS011;58696;52.134;5.500;2023-04-03T08:24:22;4.47;;;1.15;;
71042;SDS011;58696;52.134;5.500;2023-04-03T08:26:51;2.45;;;1.10;;
71042;SDS011;58696;52.134;5.500;2023-04-03T08:29:18;2.55;;;1.20;;
71042;SDS011;58696;52.134;5.500;2023-04-03T08:31:47;1.20;;;1.00;;
71042;SDS011;58696;52.134;5.500;2023-04-03T08:34:16;5.72;;;1.52;;
71042;SDS011;58696;52.134;5.500;2023-04-03T08:36:43;1.57;;;1.00;;
71042;SDS011;58696;52.134;5.500;2023-04-03T08:39:09;2.55;;;1.08;;
71042;SDS011;58696;52.134;5.500;2023-04-03T08:41:39;1.50;;;0.98;;
71042;SDS011;58696;52.134;5.500;2023-04-03T08:46:47;2.25;;;0.85;;
71042;SDS011;58696;52.134;5.500;2023-04-03T08:52:09;0.63;;;0.43;;
71042;SDS011;58696;52.134;5.500;2023-04-03T08:54:49;0.88;;;0.60;;
71042;SDS011;58696;52.134;5.500;2023-04-03T08:57:32;0.80;;;0.80;;
71042;SDS011;58696;52.134;5.500;2023-04-03T09:00:21;1.83;;;0.75;;
71042;SDS011;58696;52.134;5.500;2023-04-03T09:02:55;1.25;;;0.80;;
71042;SDS011;58696;52.134;5.500;2023-04-03T09:10:48;1.63;;;1.00;;
71042;SDS011;58696;52.134;5.500;2023-04-03T09:13:35;1.58;;;0.63;;
71042;SDS011;58696;52.134;5.500;2023-04-03T09:16:17;1.08;;;0.70;;
71042;SDS011;58696;52.134;5.500;2023-04-03T09:18:48;0.73;;;0.50;;
71042;SDS011;58696;52.134;5.500;2023-04-03T09:21:25;0.47;;;0.40;;
71042;SDS011;58696;52.134;5.500;2023-04-03T09:23:58;0.65;;;0.45;;
71042;SDS011;58696;52.134;5.500;2023-04-03T09:29:07;0.85;;;0.50;;
71042;SDS011;58696;52.134;5.500;2023-04-03T09:31:39;0.73;;;0.60;;
71042;SDS011;58696;52.134;5.500;2023-04-03T09:34:18;0.40;;;0.40;;
71042;SDS011;58696;52.134;5.500;2023-04-03T09:39:18;3.28;;;0.40;;
71042;SDS011;58696;52.134;5.500;2023-04-03T09:42:00;2.28;;;0.60;;
71042;SDS011;58696;52.134;5.500;2023-04-03T09:44:48;1.55;;;0.70;;
71042;SDS011;58696;52.134;5.500;2023-04-03T09:50:10;0.50;;;0.40;;
71042;SDS011;58696;52.134;5.500;2023-04-03T09:52:50;1.15;;;0.50;;
71042;SDS011;58696;52.134;5.500;2023-04-03T09:55:26;0.73;;;0.50;;
71042;SDS011;58696;52.134;5.500;2023-04-03T09:57:56;2.90;;;0.70;;
71042;SDS011;58696;52.134;5.500;2023-04-03T10:00:26;1.23;;;0.60;;
71042;SDS011;58696;52.134;5.500;2023-04-03T10:03:00;0.90;;;0.50;;
71042;SDS011;58696;52.134;5.500;2023-04-03T10:05:38;10.10;;;0.90;;
71042;SDS011;58696;52.134;5.500;2023-04-03T10:10:38;3.55;;;0.63;;
71042;SDS011;58696;52.134;5.500;2023-04-03T10:20:43;1.83;;;0.57;;
71042;SDS011;58696;52.134;5.500;2023-04-03T10:23:24;0.50;;;0.50;;
71042;SDS011;58696;52.134;5.500;2023-04-03T10:26:33;0.88;;;0.60;;
71042;SDS011;58696;52.134;5.500;2023-04-03T10:29:31;0.30;;;0.30;;
71042;SDS011;58696;52.134;5.500;2023-04-03T10:32:24;1.13;;;0.60;;
71042;SDS011;58696;52.134;5.500;2023-04-03T10:35:01;1.27;;;0.47;;
71042;SDS011;58696;52.134;5.500;2023-04-03T10:37:59;0.52;;;0.45;;
71042;SDS011;58696;52.134;5.500;2023-04-03T10:40:44;0.80;;;0.47;;
71042;SDS011;58696;52.134;5.500;2023-04-03T10:43:33;0.55;;;0.43;;
71042;SDS011;58696;52.134;5.500;2023-04-03T10:49:01;0.73;;;0.50;;
71042;SDS011;58696;52.134;5.500;2023-04-03T10:54:08;0.60;;;0.60;;
71042;SDS011;58696;52.134;5.500;2023-04-03T10:56:52;0.60;;;0.60;;
71042;SDS011;58696;52.134;5.500;2023-04-03T10:59:37;1.05;;;0.50;;
71042;SDS011;58696;52.134;5.500;2023-04-03T11:02:24;1.38;;;0.47;;
71042;SDS011;58696;52.134;5.500;2023-04-03T11:08:07;2.38;;;0.57;;
71042;SDS011;58696;52.134;5.500;2023-04-03T11:10:58;1.88;;;0.40;;
71042;SDS011;58696;52.134;5.500;2023-04-03T11:13:37;0.60;;;0.60;;
71042;SDS011;58696;52.134;5.500;2023-04-03T11:16:07;2.63;;;0.93;;
71042;SDS011;58696;52.134;5.500;2023-04-03T11:18:39;2.42;;;0.90;;
71042;SDS011;58696;52.134;5.500;2023-04-03T11:21:20;0.85;;;0.50;;
71042;SDS011;58696;52.134;5.500;2023-04-03T11:23:56;0.50;;;0.50;;
71042;SDS011;58696;52.134;5.500;2023-04-03T11:26:26;3.80;;;0.98;;
71042;SDS011;58696;52.134;5.500;2023-04-03T11:29:00;1.40;;;0.73;;
71042;SDS011;58696;52.134;5.500;2023-04-03T11:36:48;2.08;;;0.77;;
71042;SDS011;58696;52.134;5.500;2023-04-03T11:39:23;1.58;;;0.63;;
71042;SDS011;58696;52.134;5.500;2023-04-03T11:41:53;1.25;;;0.73;;
71042;SDS011;58696;52.134;5.500;2023-04-03T11:44:37;1.17;;;1.02;;
71042;SDS011;58696;52.134;5.500;2023-04-03T11:47:07;0.70;;;0.57;;
71042;SDS011;58696;52.134;5.500;2023-04-03T12:08:25;1.67;;;0.80;;
71042;SDS011;58696;52.134;5.500;2023-04-03T12:11:13;1.08;;;0.75;;
71042;SDS011;58696;52.134;5.500;2023-04-03T12:22:06;1.33;;;0.63;;
71042;SDS011;58696;52.134;5.500;2023-04-03T12:24:37;2.83;;;1.08;;
71042;SDS011;58696;52.134;5.500;2023-04-03T12:27:26;1.63;;;0.70;;
71042;SDS011;58696;52.134;5.500;2023-04-03T12:30:15;4.00;;;1.20;;
71042;SDS011;58696;52.134;5.500;2023-04-03T12:33:51;3.70;;;0.82;;
71042;SDS011;58696;52.134;5.500;2023-04-03T12:36:06;1.40;;;0.80;;
71042;SDS011;58696;52.134;5.500;2023-04-03T12:38:41;4.57;;;0.80;;
71042;SDS011;58696;52.134;5.500;2023-04-03T12:43:54;1.83;;;0.88;;
71042;SDS011;58696;52.134;5.500;2023-04-03T12:46:50;0.85;;;0.63;;
71042;SDS011;58696;52.134;5.500;2023-04-03T12:51:50;2.13;;;0.63;;
71042;SDS011;58696;52.134;5.500;2023-04-03T12:57:09;1.10;;;0.77;;
71042;SDS011;58696;52.134;5.500;2023-04-03T12:59:37;3.00;;;0.90;;
71042;SDS011;58696;52.134;5.500;2023-04-03T13:02:08;3.13;;;1.20;;
71042;SDS011;58696;52.134;5.500;2023-04-03T13:04:44;1.38;;;0.77;;
71042;SDS011;58696;52.134;5.500;2023-04-03T13:10:02;2.67;;;1.02;;
71042;SDS011;58696;52.134;5.500;2023-04-03T13:12:29;2.33;;;1.00;;
71042;SDS011;58696;52.134;5.500;2023-04-03T13:15:00;2.22;;;0.68;;
71042;SDS011;58696;52.134;5.500;2023-04-03T13:17:30;8.35;;;0.90;;
71042;SDS011;58696;52.134;5.500;2023-04-03T13:22:42;2.88;;;0.90;;
71042;SDS011;58696;52.134;5.500;2023-04-03T13:25:17;1.25;;;0.88;;
71042;SDS011;58696;52.134;5.500;2023-04-03T13:27:47;0.88;;;0.80;;
71042;SDS011;58696;52.134;5.500;2023-04-03T13:32:58;1.70;;;0.80;;
71042;SDS011;58696;52.134;5.500;2023-04-03T13:38:29;1.67;;;0.70;;
71042;SDS011;58696;52.134;5.500;2023-04-03T13:41:00;5.32;;;0.90;;
71042;SDS011;58696;52.134;5.500;2023-04-03T13:43:33;2.25;;;1.00;;
71042;SDS011;58696;52.134;5.500;2023-04-03T13:46:04;1.48;;;1.00;;
71042;SDS011;58696;52.134;5.500;2023-04-03T13:48:49;1.48;;;0.88;;
71042;SDS011;58696;52.134;5.500;2023-04-03T13:51:19;3.38;;;1.00;;
71042;SDS011;58696;52.134;5.500;2023-04-03T13:53:54;2.30;;;0.85;;
71042;SDS011;58696;52.134;5.500;2023-04-03T13:56:30;4.72;;;1.42;;
71042;SDS011;58696;52.134;5.500;2023-04-03T13:59:05;9.30;;;1.08;;
71042;SDS011;58696;52.134;5.500;2023-04-03T14:01:33;1.48;;;0.90;;
71042;SDS011;58696;52.134;5.500;2023-04-03T14:04:19;2.63;;;1.02;;
71042;SDS011;58696;52.134;5.500;2023-04-03T14:06:51;3.08;;;0.93;;
71042;SDS011;58696;52.134;5.500;2023-04-03T14:09:24;1.58;;;1.10;;
71042;SDS011;58696;52.134;5.500;2023-04-03T14:11:54;4.20;;;1.10;;
71042;SDS011;58696;52.134;5.500;2023-04-03T14:14:27;1.50;;;0.90;;
71042;SDS011;58696;52.134;5.500;2023-04-03T14:16:58;1.75;;;0.85;;
71042;SDS011;58696;52.134;5.500;2023-04-03T14:19:31;1.80;;;0.63;;
71042;SDS011;58696;52.134;5.500;2023-04-03T14:22:10;2.35;;;0.98;;
71042;SDS011;58696;52.134;5.500;2023-04-03T14:24:40;1.98;;;1.23;;
71042;SDS011;58696;52.134;5.500;2023-04-03T14:27:34;3.00;;;1.10;;
71042;SDS011;58696;52.134;5.500;2023-04-03T14:30:08;1.85;;;0.93;;
71042;SDS011;58696;52.134;5.500;2023-04-03T14:32:42;1.90;;;1.00;;
71042;SDS011;58696;52.134;5.500;2023-04-03T14:35:15;1.65;;;0.85;;
71042;SDS011;58696;52.134;5.500;2023-04-03T14:37:47;2.85;;;1.00;;
71042;SDS011;58696;52.134;5.500;2023-04-03T14:40:20;2.63;;;0.98;;
71042;SDS011;58696;52.134;5.500;2023-04-03T14:42:50;3.72;;;1.17;;
71042;SDS011;58696;52.134;5.500;2023-04-03T14:45:18;3.55;;;1.40;;
71042;SDS011;58696;52.134;5.500;2023-04-03T14:47:51;1.38;;;1.10;;
71042;SDS011;58696;52.134;5.500;2023-04-03T14:50:22;4.13;;;1.20;;
71042;SDS011;58696;52.134;5.500;2023-04-03T14:52:52;2.80;;;1.40;;
71042;SDS011;58696;52.134;5.500;2023-04-03T14:55:25;3.28;;;1.45;;
71042;SDS011;58696;52.134;5.500;2023-04-03T14:57:54;3.60;;;1.90;;
71042;SDS011;58696;52.134;5.500;2023-04-03T15:00:21;3.25;;;1.63;;
71042;SDS011;58696;52.134;5.500;2023-04-03T15:02:48;10.13;;;3.60;;
71042;SDS011;58696;52.134;5.500;2023-04-03T15:05:15;4.43;;;1.30;;
71042;SDS011;58696;52.134;5.500;2023-04-03T15:07:46;1.73;;;1.10;;
71042;SDS011;58696;52.134;5.500;2023-04-03T15:10:19;9.25;;;4.93;;
71042;SDS011;58696;52.134;5.500;2023-04-03T15:12:47;9.63;;;5.30;;
71042;SDS011;58696;52.134;5.500;2023-04-03T15:15:15;2.78;;;1.58;;
71042;SDS011;58696;52.134;5.500;2023-04-03T15:17:46;1.95;;;1.15;;
71042;SDS011;58696;52.134;5.500;2023-04-03T15:20:17;1.38;;;1.00;;
71042;SDS011;58696;52.134;5.500;2023-04-03T15:22:46;2.70;;;1.20;;
71042;SDS011;58696;52.134;5.500;2023-04-03T15:25:13;1.15;;;1.02;;
71042;SDS011;58696;52.134;5.500;2023-04-03T15:27:40;2.72;;;1.27;;
71042;SDS011;58696;52.134;5.500;2023-04-03T15:30:11;6.40;;;1.30;;
71042;SDS011;58696;52.134;5.500;2023-04-03T15:32:41;1.77;;;1.30;;
71042;SDS011;58696;52.134;5.500;2023-04-03T15:35:08;4.20;;;1.30;;
71042;SDS011;58696;52.134;5.500;2023-04-03T15:37:34;3.20;;;1.65;;
71042;SDS011;58696;52.134;5.500;2023-04-03T15:40:04;2.33;;;1.25;;
71042;SDS011;58696;52.134;5.500;2023-04-03T15:42:34;3.30;;;1.15;;
71042;SDS011;58696;52.134;5.500;2023-04-03T15:45:00;2.88;;;1.15;;
71042;SDS011;58696;52.134;5.500;2023-04-03T15:47:30;3.35;;;1.30;;
71042;SDS011;58696;52.134;5.500;2023-04-03T15:49:58;2.25;;;1.40;;
71042;SDS011;58696;52.134;5.500;2023-04-03T15:52:27;4.60;;;1.50;;
71042;SDS011;58696;52.134;5.500;2023-04-03T15:54:56;7.13;;;1.10;;
71042;SDS011;58696;52.134;5.500;2023-04-03T15:57:25;2.67;;;1.23;;
71042;SDS011;58696;52.134;5.500;2023-04-03T15:59:53;2.90;;;1.30;;
71042;SDS011;58696;52.134;5.500;2023-04-03T16:02:22;4.32;;;1.30;;
71042;SDS011;58696;52.134;5.500;2023-04-03T16:04:51;3.75;;;1.25;;
71042;SDS011;58696;52.134;5.500;2023-04-03T16:07:20;3.88;;;1.30;;
71042;SDS011;58696;52.134;5.500;2023-04-03T16:09:49;3.38;;;1.33;;
71042;SDS011;58696;52.134;5.500;2023-04-03T16:12:16;2.22;;;1.38;;
71042;SDS011;58696;52.134;5.500;2023-04-03T16:14:45;2.95;;;1.25;;
71042;SDS011;58696;52.134;5.500;2023-04-03T16:17:11;1.98;;;1.20;;
71042;SDS011;58696;52.134;5.500;2023-04-03T16:19:37;1.92;;;1.02;;
71042;SDS011;58696;52.134;5.500;2023-04-03T16:22:04;1.52;;;0.98;;
71042;SDS011;58696;52.134;5.500;2023-04-03T16:24:33;1.17;;;0.95;;
71042;SDS011;58696;52.134;5.500;2023-04-03T16:27:04;2.05;;;1.30;;
71042;SDS011;58696;52.134;5.500;2023-04-03T16:29:31;3.20;;;1.20;;
71042;SDS011;58696;52.134;5.500;2023-04-03T16:32:00;1.58;;;1.13;;
71042;SDS011;58696;52.134;5.500;2023-04-03T16:34:28;2.75;;;1.10;;
71042;SDS011;58696;52.134;5.500;2023-04-03T16:36:56;4.05;;;1.20;;
71042;SDS011;58696;52.134;5.500;2023-04-03T16:39:26;5.28;;;1.45;;
71042;SDS011;58696;52.134;5.500;2023-04-03T16:41:52;3.60;;;1.27;;
71042;SDS011;58696;52.134;5.500;2023-04-03T16:44:19;6.35;;;1.00;;
71042;SDS011;58696;52.134;5.500;2023-04-03T16:46:46;2.58;;;1.40;;